Latest Coastal Weather Observations for Low Isles

IDQ60701

Issued at 8:31 am EST Wednesday 2 September 2015 (issued every 10 minutes, with the page automatically refreshed every 10 minutes)

About coastal observations | Map of coastal stations | Coastal observations for QLD | Marine services | Other Formats
Station Details ID: 031037 Name: LOW ISLES LIGHTHOUSE Lat: -16.38 Lon: 145.56 Height: 2.9 m
Data from the previous 72 hours. | See also: Recent months at Low Isles
Date/Time
EST
Temp

°C
Wind Pressure Rain
since 9am
mm
Weather Cloud Vis
km
Sea
Height
m
Swell
Dir
 
Speed
knots
Gust
knots
hPa Trend Height
m
Period
s
Dir
02/08:30am 24.3 NNW 4 5 1019.0 - 0.0 - - - - - - -
02/08:00am 23.9 NNW 3 4 1018.7 - 0.0 - - - - - - -
02/07:30am 23.8 WNW 5 6 1018.2 - 0.0 - - - - - - -
02/07:00am 23.5 NNE 7 8 1017.8 - 0.0 - - - - - - -
02/06:30am 22.8 NNE 7 8 1017.3 - 0.0 - - - - - - -
02/06:00am 22.6 NE 7 8 1016.7 - 0.0 - - - - - - -
02/05:30am 22.9 NE 7 9 1016.3 - 0.0 - - - - - - -
02/05:00am 23.1 NNE 7 8 1016.0 - 0.0 - - - - - - -
02/04:30am 23.4 NNE 8 10 1015.9 - 0.0 - - - - - - -
02/04:00am 23.4 NNE 8 9 1016.0 - 0.0 - - - - - - -
02/03:30am 23.5 NNE 9 10 1016.0 - 0.0 - - - - - - -
02/03:00am 23.6 NNE 9 11 1015.9 - 0.0 - - - - - - -
02/02:30am 23.8 NNE 9 11 1015.9 - 0.0 - - - - - - -
02/02:00am 24.2 NNE 10 12 1016.0 - 0.0 - - - - - - -
02/01:30am 24.3 NNE 11 13 1016.1 - 0.0 - - - - - - -
02/01:00am 24.4 NNE 12 14 1016.2 - 0.0 - - - - - - -
02/12:30am 24.4 NNE 9 12 1016.2 - 0.0 - - - - - - -
02/12:00am 24.3 NNE 9 10 1016.2 - 0.0 - - - - - - -
 
Date/Time
EST
Temp

°C
Wind Pressure Rain
since 9am
mm
Weather Cloud Vis
km
Sea
Height
m
Swell
Dir
 
Speed
knots
Gust
knots
hPa Trend Height
m
Period
s
Dir
01/11:30pm 24.4 NNE 8 9 1016.3 - 0.0 - - - - - - -
01/11:00pm 24.3 NE 9 10 1016.2 - 0.0 - - - - - - -
01/10:30pm 23.7 NNE 8 9 1016.1 - 0.0 - - - - - - -
01/10:00pm 24.1 NNE 8 10 1016.0 - 0.0 - - - - - - -
01/09:30pm 24.2 NNE 9 11 1015.8 - 0.0 - - - - - - -
01/09:00pm 24.0 NNE 8 9 1015.4 - 0.0 - - - - - - -
01/08:30pm 24.0 NNE 9 10 1015.0 - 0.0 - - - - - - -
01/08:00pm 24.1 NNE 9 10 1014.7 - 0.0 - - - - - - -
01/07:30pm 24.5 NNE 9 11 1014.4 - 0.0 - - - - - - -
01/07:00pm 24.6 NNE 11 12 1014.0 - 0.0 - - - - - - -
01/06:30pm 24.9 NNE 11 13 1013.8 - 0.0 - - - - - - -
01/06:00pm 25.2 NNE 11 12 1013.4 - 0.0 - - - - - - -
01/05:30pm 25.9 NNE 11 11 1013.6 - 0.0 - - - - - - -
01/05:00pm 26.6 NNE 11 13 1013.3 - 0.0 - - - - - - -
01/04:30pm 28.2 NNE 10 12 1013.2 - 0.0 - - - - - - -
01/04:00pm 29.1 NNE 9 11 1013.2 - 0.0 - - - - - - -
01/03:30pm 29.5 NNE 9 11 1013.3 - 0.0 - - - - - - -
01/03:00pm 30.7 NE 9 11 1013.4 - 0.0 - - - - - - -
01/02:30pm 30.1 NE 9 11 1013.8 - 0.0 - - - - - - -
01/02:00pm 30.8 NE 9 11 1014.3 - 0.0 - - - - - - -
01/01:30pm 31.3 NE 9 10 1014.7 - 0.0 - - - - - - -
01/01:00pm 30.7 NE 6 8 1015.2 - 0.0 - - - - - - -
01/12:30pm 29.6 ENE 5 7 1015.6 - 0.0 - - - - - - -
01/12:00pm 28.9 ENE 4 5 1016.2 - 0.0 - - - - - - -
01/11:30am 28.6 NE 4 6 1016.8 - 0.0 - - - - - - -
01/11:00am 28.0 NE 3 5 1017.1 - 0.0 - - - - - - -
01/10:30am 26.6 N 1 3 1017.5 - 0.0 - - - - - - -
01/10:00am 25.4 W 1 4 1017.7 - 0.0 - - - - - - -
01/09:30am 24.7 WSW 4 5 1017.7 - 0.0 - - - - - - -
01/09:00am 24.1 WSW 5 6 1017.3 - 0.0 Haze Partly cloudy 22 - - - -
01/08:30am 24.0 W 4 5 1017.1 - 0.0 - - - - - - -
01/08:00am 24.0 W 5 6 1016.8 - 0.0 - - - - - - -
01/07:30am 23.6 W 5 6 1016.6 - 0.0 - - - - - - -
01/07:00am 23.3 W 6 7 1016.0 - 0.0 - - - - - - -
01/06:30am 23.3 WNW 4 5 1015.7 - 0.0 - - - - - - -
01/06:00am 23.3 WSW 4 5 1015.2 - 0.0 - - - - - - -
01/05:30am 23.2 WSW 6 7 1014.9 - 0.0 - - - - - - -
01/05:00am 23.2 WSW 6 7 1014.7 - 0.0 - - - - - - -
01/04:30am 22.8 NW 2 5 1014.5 - 0.0 - - - - - - -
01/04:00am 22.6 N 1 3 1014.5 - 0.0 - - - - - - -
01/03:30am 23.4 WSW 7 9 1014.6 - 0.0 - - - - - - -
01/03:00am 23.2 N 1 7 1014.6 - 0.0 - - - - - - -
01/02:30am 22.5 NE 4 4 1014.7 - 0.0 - - - - - - -
01/02:00am 22.5 NE 5 5 1014.8 - 0.0 - - - - - - -
01/01:30am 22.7 NE 4 5 1015.1 - 0.0 - - - - - - -
01/01:00am 22.7 NE 5 6 1015.2 - 0.0 - - - - - - -
01/12:30am 22.7 NNE 5 6 1015.5 - 0.0 - - - - - - -
01/12:00am 22.8 NE 5 7 1015.5 - 0.0 - - - - - - -
 
Date/Time
EST
Temp

°C
Wind Pressure Rain
since 9am
mm
Weather Cloud Vis
km
Sea
Height
m
Swell
Dir
 
Speed
knots
Gust
knots
hPa Trend Height
m
Period
s
Dir
31/11:30pm 22.8 NE 5 6 1015.8 - 0.0 - - - - - - -
31/11:00pm 22.9 NE 6 7 1015.7 - 0.0 - - - - - - -
31/10:30pm 23.2 NE 7 9 1015.7 - 0.0 - - - - - - -
31/10:00pm 23.1 NE 7 8 1015.7 - 0.0 - - - - - - -
31/09:30pm 22.9 ENE 6 8 1015.6 - 0.0 - - - - - - -
31/09:00pm 23.0 ENE 7 8 1015.3 - 0.0 - - - - - - -
31/08:30pm 23.1 NE 6 7 1015.3 - 0.0 - - - - - - -
31/08:00pm 23.2 NE 5 7 1014.9 - 0.0 - - - - - - -
31/07:30pm 23.4 NE 6 8 1014.6 - 0.0 - - - - - - -
31/07:00pm 23.8 NE 7 8 1014.2 - 0.0 - - - - - - -
31/06:30pm 24.3 NE 8 11 1013.9 - 0.0 - - - - - - -
31/06:00pm 24.9 NE 8 9 1013.4 - 0.0 - - - - - - -
31/05:30pm 25.6 ENE 8 10 1013.4 - 0.0 - - - - - - -
31/05:00pm 26.2 ENE 7 9 1013.1 - 0.0 - - - - - - -
31/04:30pm 27.3 ENE 9 11 1013.0 - 0.0 - - - - - - -
31/04:00pm 28.4 ENE 7 10 1013.0 - 0.0 - - - - - - -
31/03:30pm 28.4 E 8 11 1013.0 - 0.0 - - - - - - -
31/03:00pm 28.9 ENE 8 10 1013.3 - 0.0 - - - - - - -
31/02:30pm 29.0 ENE 9 11 1013.9 - 0.0 - - - - - - -
31/02:00pm 29.0 ENE 7 9 1014.4 - 0.0 - - - - - - -
31/01:30pm 29.5 E 8 11 1014.7 - 0.0 - - - - - - -
31/01:00pm 29.7 ENE 6 8 1015.1 - 0.0 - - - - - - -
31/12:30pm 29.0 ENE 6 7 1015.4 - 0.0 - - - - - - -
31/12:00pm 29.5 NE 5 6 1015.6 - 0.0 - - - - - - -
31/11:30am 28.3 NE 3 5 1016.1 - 0.0 - - - - - - -
31/11:00am 27.6 SSE 3 4 1016.6 - 0.0 - - - - - - -
31/10:30am 26.8 SSE 4 4 1017.0 - 0.0 - - - - - - -
31/10:00am 25.0 SSE 5 6 1017.1 - 0.0 - - - - - - -
31/09:30am 23.8 SSW 4 6 1017.1 - 0.0 - - - - - - -
31/09:00am 23.5 WSW 5 6 1016.9 - 0.0 Fine Partly cloudy 25 - - - -
31/08:30am 23.3 W 5 6 1016.7 - 0.0 - - - - - - -
31/08:00am 23.4 WNW 6 7 1016.5 - 0.0 - - - - - - -
31/07:30am 23.1 WNW 6 7 1016.2 - 0.0 - - - - - - -
31/07:00am 23.0 WNW 6 7 1015.8 - 0.0 - - - - - - -
31/06:30am 22.9 WNW 6 7 1015.5 - 0.0 - - - - - - -
31/06:00am 22.8 W 5 7 1014.9 - 0.0 - - - - - - -
31/05:30am 22.7 WNW 5 6 1014.7 - 0.0 - - - - - - -
31/05:00am 22.2 W 2 3 1014.5 - 0.0 - - - - - - -
31/04:30am 22.2 NW 4 6 1014.3 - 0.0 - - - - - - -
31/04:00am 22.7 NW 5 6 1014.4 - 0.0 - - - - - - -
31/03:30am 22.6 WNW 5 6 1014.4 - 0.0 - - - - - - -
31/03:00am 23.1 WNW 6 8 1014.4 - 0.0 - - - - - - -
31/02:30am 23.2 WNW 6 7 1014.6 - 0.0 - - - - - - -
31/02:00am 23.5 NW 6 8 1014.8 - 0.0 - - - - - - -
31/01:30am 23.7 W 5 6 1015.1 - 0.0 - - - - - - -
31/01:00am 23.8 W 5 6 1015.2 - 0.0 - - - - - - -
31/12:30am 24.0 NW 5 6 1015.5 - 0.0 - - - - - - -
31/12:00am 23.3 NNE 5 6 1015.6 - 0.0 - - - - - - -
 
Date/Time
EST
Temp

°C
Wind Pressure Rain
since 9am
mm
Weather Cloud Vis
km
Sea
Height
m
Swell
Dir
 
Speed
knots
Gust
knots
hPa Trend Height
m
Period
s
Dir
30/11:30pm 23.4 NNE 5 6 1015.8 - 0.0 - - - - - - -
30/11:00pm 23.3 NE 4 5 1015.7 - 0.0 - - - - - - -
30/10:30pm 23.1 E 4 4 1015.8 - 0.0 - - - - - - -
30/10:00pm 23.2 E 3 4 1015.9 - 0.0 - - - - - - -
30/09:30pm 23.5 E 4 5 1016.0 - 0.0 - - - - - - -
30/09:00pm 23.8 E 4 5 1015.8 - 0.0 - - - - - - -
30/08:30pm 24.0 ENE 4 5 1015.7 - 0.0 - - - - - - -
30/08:00pm 24.0 ENE 4 6 1015.4 - 0.0 - - - - - - -
30/07:30pm 24.4 ENE 6 7 1015.0 - 0.0 - - - - - - -
30/07:00pm 24.6 ENE 7 8 1014.7 - 0.0 - - - - - - -
30/06:30pm 24.7 ENE 7 8 1014.4 - 0.0 - - - - - - -
30/06:00pm 24.7 ENE 6 7 1013.9 - 0.0 - - - - - - -
30/05:30pm 25.6 ENE 7 9 1013.9 - 0.0 - - - - - - -
30/05:00pm 26.4 ENE 7 8 1013.8 - 0.0 - - - - - - -
30/04:30pm 27.7 NE 6 8 1013.7 - 0.0 - - - - - - -
30/04:00pm 28.0 ENE 6 8 1013.7 - 0.0 - - - - - - -
30/03:30pm 28.7 ENE 7 9 1013.8 - 0.0 - - - - - - -
30/03:00pm 29.3 ENE 7 9 1013.8 - 0.0 - - - - - - -
30/02:30pm 29.4 E 6 9 1014.4 - 0.0 - - - - - - -
30/02:00pm 29.3 ENE 7 10 1014.8 - 0.0 - - - - - - -
30/01:30pm 28.9 E 8 10 1015.1 - 0.0 - - - - - - -
30/01:00pm 28.5 E 7 10 1015.6 - 0.0 - - - - - - -
30/12:30pm 28.0 ESE 8 11 1016.2 - 0.0 - - - - - - -
30/12:00pm 27.2 SE 8 11 1016.6 - 0.0 - - - - - - -
30/11:30am 26.1 SSE 8 9 1017.3 - 0.0 - - - - - - -
30/11:00am 25.2 SSE 9 10 1017.9 - 0.0 - - - - - - -
30/10:30am 24.9 SSE 9 9 1018.2 - 0.0 - - - - - - -
30/10:00am 24.5 S 9 10 1018.3 - 0.0 - - - - - - -
30/09:30am 24.3 S 7 10 1018.2 - 0.0 - - - - - - -
30/09:00am 24.0 SE 6 8 1017.8 - 0.0 Fine Partly cloudy 20 - - - -

Other Formats:

Comma delimited format used in spreadsheet applications
http://www.bom.gov.au/fwo/IDQ60701/IDQ60701.94285.axf

JavaScript Object Notation format (JSON) in row-major order
http://www.bom.gov.au/fwo/IDQ60701/IDQ60701.94285.json